KAHN/AHN METAR and TAF weather

Enter ICAO airport designator
Station Type Date Time Source
KAHN METAR 2020/09/18 22:51 UTC NOAA

KAHN 182251Z 00000KT 10SM SCT050 25/19 A2997 RMK AO2 SLP142 T02500194


Station Type Date Time Source
KAHN Decoded METAR 2020/09/18 22:51 UTC NOAA

ATHENS BEN EPPS AIRPORT, GA, United States (KAHN) 33-57N 083-20W 244M
Sep 18, 2020 - 06:51 PM EDT / 2020.09.18 2251 UTC
Wind: Calm:0
Visibility: 10 mile(s):0
Sky conditions: partly cloudy
Temperature: 77.0 F (25.0 C)
Dew Point: 66.9 F (19.4 C)
Relative Humidity: 71%
Pressure (altimeter): 29.97 in. Hg (1014 hPa)
ob: KAHN 182251Z 00000KT 10SM SCT050 25/19 A2997 RMK AO2 SLP142 T02500194
cycle: 23

Station Type Date Time Source
KAHN TAF 2020/09/18 18:39 UTC NOAA

TAF KAHN 181736Z 1818/1918 03008KT P6SM BKN040 BKN250
FM182300 05006KT P6SM SCT045 BKN250
FM190600 06009KT P6SM BKN035 BKN250
FM191500 06012KT P6SM BKN040 BKN250

Example: see airport list